sensor_id;sensor_type;location;lat;lon;timestamp;P1;durP1;ratioP1;P2;durP2;ratioP2
41897;SDS011;27576;53.366;-1.498;2024-03-25T00:00:42;18.15;;;8.18;;
41897;SDS011;27576;53.366;-1.498;2024-03-25T00:03:08;11.50;;;6.70;;
41897;SDS011;27576;53.366;-1.498;2024-03-25T00:05:33;13.32;;;5.85;;
41897;SDS011;27576;53.366;-1.498;2024-03-25T00:07:59;17.02;;;6.43;;
41897;SDS011;27576;53.366;-1.498;2024-03-25T00:10:24;10.48;;;6.22;;
41897;SDS011;27576;53.366;-1.498;2024-03-25T00:12:49;15.60;;;6.90;;
41897;SDS011;27576;53.366;-1.498;2024-03-25T00:15:19;12.45;;;6.82;;
41897;SDS011;27576;53.366;-1.498;2024-03-25T00:17:45;12.40;;;5.75;;
41897;SDS011;27576;53.366;-1.498;2024-03-25T00:20:12;12.25;;;6.57;;
41897;SDS011;27576;53.366;-1.498;2024-03-25T00:22:38;13.90;;;6.68;;
41897;SDS011;27576;53.366;-1.498;2024-03-25T00:25:04;11.30;;;6.28;;
41897;SDS011;27576;53.366;-1.498;2024-03-25T00:27:29;17.35;;;7.72;;
41897;SDS011;27576;53.366;-1.498;2024-03-25T00:29:55;18.00;;;7.90;;
41897;SDS011;27576;53.366;-1.498;2024-03-25T00:32:21;17.63;;;7.70;;
41897;SDS011;27576;53.366;-1.498;2024-03-25T00:34:46;17.45;;;7.38;;
41897;SDS011;27576;53.366;-1.498;2024-03-25T00:37:12;14.63;;;7.57;;
41897;SDS011;27576;53.366;-1.498;2024-03-25T00:39:37;19.15;;;7.75;;
41897;SDS011;27576;53.366;-1.498;2024-03-25T00:42:03;17.10;;;7.90;;
41897;SDS011;27576;53.366;-1.498;2024-03-25T00:44:29;19.08;;;8.27;;
41897;SDS011;27576;53.366;-1.498;2024-03-25T00:46:54;17.65;;;9.30;;
41897;SDS011;27576;53.366;-1.498;2024-03-25T00:49:20;25.23;;;10.98;;
41897;SDS011;27576;53.366;-1.498;2024-03-25T00:51:46;23.25;;;11.55;;
41897;SDS011;27576;53.366;-1.498;2024-03-25T00:54:12;24.25;;;11.63;;
41897;SDS011;27576;53.366;-1.498;2024-03-25T00:56:37;29.50;;;11.30;;
41897;SDS011;27576;53.366;-1.498;2024-03-25T00:59:02;22.55;;;11.27;;
41897;SDS011;27576;53.366;-1.498;2024-03-25T01:01:28;23.80;;;12.73;;
41897;SDS011;27576;53.366;-1.498;2024-03-25T01:03:55;23.83;;;12.30;;
41897;SDS011;27576;53.366;-1.498;2024-03-25T01:06:20;26.25;;;10.77;;
41897;SDS011;27576;53.366;-1.498;2024-03-25T01:08:46;21.92;;;10.38;;
41897;SDS011;27576;53.366;-1.498;2024-03-25T01:11:11;14.13;;;8.05;;
41897;SDS011;27576;53.366;-1.498;2024-03-25T01:13:36;18.67;;;8.65;;
41897;SDS011;27576;53.366;-1.498;2024-03-25T01:16:02;18.10;;;9.23;;
41897;SDS011;27576;53.366;-1.498;2024-03-25T01:18:27;20.05;;;11.25;;
41897;SDS011;27576;53.366;-1.498;2024-03-25T01:20:53;21.52;;;11.25;;
41897;SDS011;27576;53.366;-1.498;2024-03-25T01:23:19;24.48;;;11.40;;
41897;SDS011;27576;53.366;-1.498;2024-03-25T01:25:45;20.40;;;10.35;;
41897;SDS011;27576;53.366;-1.498;2024-03-25T01:28:10;25.63;;;11.82;;
41897;SDS011;27576;53.366;-1.498;2024-03-25T01:30:35;20.15;;;11.00;;
41897;SDS011;27576;53.366;-1.498;2024-03-25T01:33:04;23.40;;;10.77;;
41897;SDS011;27576;53.366;-1.498;2024-03-25T01:35:30;25.92;;;11.88;;
41897;SDS011;27576;53.366;-1.498;2024-03-25T01:37:55;18.10;;;10.70;;
41897;SDS011;27576;53.366;-1.498;2024-03-25T01:40:21;26.30;;;11.43;;
41897;SDS011;27576;53.366;-1.498;2024-03-25T01:42:56;26.95;;;11.07;;
41897;SDS011;27576;53.366;-1.498;2024-03-25T01:45:23;22.27;;;9.85;;
41897;SDS011;27576;53.366;-1.498;2024-03-25T01:47:49;19.48;;;9.60;;
41897;SDS011;27576;53.366;-1.498;2024-03-25T01:50:15;17.60;;;9.55;;
41897;SDS011;27576;53.366;-1.498;2024-03-25T01:52:41;22.90;;;9.20;;
41897;SDS011;27576;53.366;-1.498;2024-03-25T01:55:07;14.48;;;8.02;;
41897;SDS011;27576;53.366;-1.498;2024-03-25T01:57:37;18.42;;;7.68;;
41897;SDS011;27576;53.366;-1.498;2024-03-25T02:00:04;20.00;;;8.30;;
41897;SDS011;27576;53.366;-1.498;2024-03-25T02:02:30;15.55;;;7.97;;
41897;SDS011;27576;53.366;-1.498;2024-03-25T02:04:58;16.27;;;8.18;;
41897;SDS011;27576;53.366;-1.498;2024-03-25T02:07:24;21.00;;;8.77;;
41897;SDS011;27576;53.366;-1.498;2024-03-25T02:09:51;19.75;;;8.20;;
41897;SDS011;27576;53.366;-1.498;2024-03-25T02:12:17;15.13;;;7.13;;
41897;SDS011;27576;53.366;-1.498;2024-03-25T02:14:43;17.75;;;8.23;;
41897;SDS011;27576;53.366;-1.498;2024-03-25T02:17:08;16.92;;;8.10;;
41897;SDS011;27576;53.366;-1.498;2024-03-25T02:19:34;16.73;;;7.50;;
41897;SDS011;27576;53.366;-1.498;2024-03-25T02:22:02;17.60;;;7.70;;
41897;SDS011;27576;53.366;-1.498;2024-03-25T02:24:28;16.85;;;7.50;;
41897;SDS011;27576;53.366;-1.498;2024-03-25T02:26:56;21.55;;;9.13;;
41897;SDS011;27576;53.366;-1.498;2024-03-25T02:29:21;14.65;;;7.22;;
41897;SDS011;27576;53.366;-1.498;2024-03-25T02:31:46;25.05;;;8.40;;
41897;SDS011;27576;53.366;-1.498;2024-03-25T02:34:13;16.75;;;7.30;;
41897;SDS011;27576;53.366;-1.498;2024-03-25T02:36:38;20.10;;;8.13;;
41897;SDS011;27576;53.366;-1.498;2024-03-25T02:39:03;11.98;;;7.13;;
41897;SDS011;27576;53.366;-1.498;2024-03-25T02:41:30;17.02;;;7.40;;
41897;SDS011;27576;53.366;-1.498;2024-03-25T02:43:56;16.55;;;8.00;;
41897;SDS011;27576;53.366;-1.498;2024-03-25T02:46:22;20.80;;;9.13;;
41897;SDS011;27576;53.366;-1.498;2024-03-25T02:48:47;14.90;;;7.90;;
41897;SDS011;27576;53.366;-1.498;2024-03-25T02:51:13;17.92;;;8.57;;
41897;SDS011;27576;53.366;-1.498;2024-03-25T02:53:38;21.08;;;8.18;;
41897;SDS011;27576;53.366;-1.498;2024-03-25T02:56:03;14.75;;;7.88;;
41897;SDS011;27576;53.366;-1.498;2024-03-25T02:58:29;15.65;;;8.07;;
41897;SDS011;27576;53.366;-1.498;2024-03-25T03:00:54;16.10;;;8.40;;
41897;SDS011;27576;53.366;-1.498;2024-03-25T03:03:20;17.88;;;8.18;;
41897;SDS011;27576;53.366;-1.498;2024-03-25T03:05:45;14.10;;;7.03;;
41897;SDS011;27576;53.366;-1.498;2024-03-25T03:08:10;16.30;;;7.95;;
41897;SDS011;27576;53.366;-1.498;2024-03-25T03:10:36;17.70;;;8.48;;
41897;SDS011;27576;53.366;-1.498;2024-03-25T03:13:01;14.70;;;7.45;;
41897;SDS011;27576;53.366;-1.498;2024-03-25T03:15:26;18.80;;;8.73;;
41897;SDS011;27576;53.366;-1.498;2024-03-25T03:17:52;17.90;;;9.05;;
41897;SDS011;27576;53.366;-1.498;2024-03-25T03:20:17;19.50;;;8.30;;
41897;SDS011;27576;53.366;-1.498;2024-03-25T03:22:42;16.42;;;8.73;;
41897;SDS011;27576;53.366;-1.498;2024-03-25T03:25:08;20.73;;;9.10;;
41897;SDS011;27576;53.366;-1.498;2024-03-25T03:27:33;18.85;;;7.75;;
41897;SDS011;27576;53.366;-1.498;2024-03-25T03:29:58;17.88;;;8.55;;
41897;SDS011;27576;53.366;-1.498;2024-03-25T03:32:24;18.80;;;7.82;;
41897;SDS011;27576;53.366;-1.498;2024-03-25T03:34:49;14.88;;;7.30;;
41897;SDS011;27576;53.366;-1.498;2024-03-25T03:37:15;17.13;;;7.72;;
41897;SDS011;27576;53.366;-1.498;2024-03-25T03:39:40;13.25;;;7.97;;
41897;SDS011;27576;53.366;-1.498;2024-03-25T03:42:05;14.82;;;7.35;;
41897;SDS011;27576;53.366;-1.498;2024-03-25T03:44:31;16.90;;;8.55;;
41897;SDS011;27576;53.366;-1.498;2024-03-25T03:46:56;16.77;;;7.68;;
41897;SDS011;27576;53.366;-1.498;2024-03-25T03:49:21;18.60;;;8.27;;
41897;SDS011;27576;53.366;-1.498;2024-03-25T03:51:47;15.90;;;8.35;;
41897;SDS011;27576;53.366;-1.498;2024-03-25T03:54:12;16.85;;;9.18;;
41897;SDS011;27576;53.366;-1.498;2024-03-25T03:56:38;19.85;;;8.63;;
41897;SDS011;27576;53.366;-1.498;2024-03-25T03:59:03;14.45;;;7.85;;
41897;SDS011;27576;53.366;-1.498;2024-03-25T04:01:29;18.75;;;7.80;;
41897;SDS011;27576;53.366;-1.498;2024-03-25T04:03:54;14.27;;;7.68;;
41897;SDS011;27576;53.366;-1.498;2024-03-25T04:06:20;16.75;;;8.20;;
41897;SDS011;27576;53.366;-1.498;2024-03-25T04:08:45;18.75;;;7.65;;
41897;SDS011;27576;53.366;-1.498;2024-03-25T04:11:11;21.60;;;8.68;;
41897;SDS011;27576;53.366;-1.498;2024-03-25T04:13:36;15.48;;;7.53;;
41897;SDS011;27576;53.366;-1.498;2024-03-25T04:16:05;15.85;;;7.03;;
41897;SDS011;27576;53.366;-1.498;2024-03-25T04:18:31;18.20;;;8.65;;
41897;SDS011;27576;53.366;-1.498;2024-03-25T04:20:58;16.52;;;8.50;;
41897;SDS011;27576;53.366;-1.498;2024-03-25T04:23:23;18.98;;;8.80;;
41897;SDS011;27576;53.366;-1.498;2024-03-25T04:25:49;15.88;;;8.45;;
41897;SDS011;27576;53.366;-1.498;2024-03-25T04:28:15;15.02;;;8.20;;
41897;SDS011;27576;53.366;-1.498;2024-03-25T04:30:41;16.92;;;7.88;;
41897;SDS011;27576;53.366;-1.498;2024-03-25T04:33:06;19.00;;;7.85;;
41897;SDS011;27576;53.366;-1.498;2024-03-25T04:35:33;19.30;;;8.15;;
41897;SDS011;27576;53.366;-1.498;2024-03-25T04:37:58;12.38;;;7.30;;
41897;SDS011;27576;53.366;-1.498;2024-03-25T04:40:23;14.90;;;7.80;;
41897;SDS011;27576;53.366;-1.498;2024-03-25T04:42:49;17.60;;;8.40;;
41897;SDS011;27576;53.366;-1.498;2024-03-25T04:45:14;16.85;;;8.13;;
41897;SDS011;27576;53.366;-1.498;2024-03-25T04:47:40;15.52;;;7.47;;
41897;SDS011;27576;53.366;-1.498;2024-03-25T04:50:05;18.48;;;8.55;;
41897;SDS011;27576;53.366;-1.498;2024-03-25T04:52:32;18.08;;;8.90;;
41897;SDS011;27576;53.366;-1.498;2024-03-25T04:54:57;14.80;;;8.27;;
41897;SDS011;27576;53.366;-1.498;2024-03-25T04:57:22;17.60;;;8.57;;
41897;SDS011;27576;53.366;-1.498;2024-03-25T04:59:48;17.40;;;7.85;;
41897;SDS011;27576;53.366;-1.498;2024-03-25T05:02:13;16.98;;;9.05;;
41897;SDS011;27576;53.366;-1.498;2024-03-25T05:04:39;14.13;;;8.32;;
41897;SDS011;27576;53.366;-1.498;2024-03-25T05:07:04;18.40;;;9.15;;
41897;SDS011;27576;53.366;-1.498;2024-03-25T05:09:29;20.25;;;8.82;;
41897;SDS011;27576;53.366;-1.498;2024-03-25T05:11:55;14.18;;;8.50;;
41897;SDS011;27576;53.366;-1.498;2024-03-25T05:14:20;15.88;;;8.00;;
41897;SDS011;27576;53.366;-1.498;2024-03-25T05:16:46;17.05;;;8.60;;
41897;SDS011;27576;53.366;-1.498;2024-03-25T05:19:11;16.80;;;8.35;;
41897;SDS011;27576;53.366;-1.498;2024-03-25T05:21:37;15.30;;;8.40;;
41897;SDS011;27576;53.366;-1.498;2024-03-25T05:24:02;17.50;;;9.13;;
41897;SDS011;27576;53.366;-1.498;2024-03-25T05:26:27;20.70;;;9.52;;
41897;SDS011;27576;53.366;-1.498;2024-03-25T05:28:54;23.60;;;9.82;;
41897;SDS011;27576;53.366;-1.498;2024-03-25T05:31:20;21.20;;;8.40;;
41897;SDS011;27576;53.366;-1.498;2024-03-25T05:33:46;17.92;;;8.55;;
41897;SDS011;27576;53.366;-1.498;2024-03-25T05:36:11;21.02;;;8.13;;
41897;SDS011;27576;53.366;-1.498;2024-03-25T05:38:37;19.98;;;9.02;;
41897;SDS011;27576;53.366;-1.498;2024-03-25T05:41:03;13.68;;;8.52;;
41897;SDS011;27576;53.366;-1.498;2024-03-25T05:43:29;21.98;;;9.05;;
41897;SDS011;27576;53.366;-1.498;2024-03-25T05:45:54;20.77;;;8.10;;
41897;SDS011;27576;53.366;-1.498;2024-03-25T05:48:20;18.63;;;10.38;;
41897;SDS011;27576;53.366;-1.498;2024-03-25T05:50:46;20.15;;;8.32;;
41897;SDS011;27576;53.366;-1.498;2024-03-25T05:53:22;15.38;;;8.32;;
41897;SDS011;27576;53.366;-1.498;2024-03-25T05:55:48;15.88;;;7.90;;
41897;SDS011;27576;53.366;-1.498;2024-03-25T05:58:13;14.02;;;7.68;;
41897;SDS011;27576;53.366;-1.498;2024-03-25T06:00:38;16.95;;;8.18;;
41897;SDS011;27576;53.366;-1.498;2024-03-25T06:03:04;17.42;;;8.43;;
41897;SDS011;27576;53.366;-1.498;2024-03-25T06:05:30;17.48;;;8.23;;
41897;SDS011;27576;53.366;-1.498;2024-03-25T06:07:55;18.63;;;8.57;;
41897;SDS011;27576;53.366;-1.498;2024-03-25T06:10:21;19.40;;;8.43;;
41897;SDS011;27576;53.366;-1.498;2024-03-25T06:12:46;18.15;;;7.70;;
41897;SDS011;27576;53.366;-1.498;2024-03-25T06:15:11;11.95;;;7.32;;
41897;SDS011;27576;53.366;-1.498;2024-03-25T06:17:37;13.32;;;7.13;;
41897;SDS011;27576;53.366;-1.498;2024-03-25T06:20:02;12.90;;;7.00;;
41897;SDS011;27576;53.366;-1.498;2024-03-25T06:22:29;12.43;;;6.50;;
41897;SDS011;27576;53.366;-1.498;2024-03-25T06:24:54;16.33;;;7.38;;
41897;SDS011;27576;53.366;-1.498;2024-03-25T06:27:19;16.02;;;6.80;;
41897;SDS011;27576;53.366;-1.498;2024-03-25T06:29:46;18.55;;;6.82;;
41897;SDS011;27576;53.366;-1.498;2024-03-25T06:32:11;16.65;;;7.10;;
41897;SDS011;27576;53.366;-1.498;2024-03-25T06:34:55;15.93;;;7.75;;
41897;SDS011;27576;53.366;-1.498;2024-03-25T06:37:25;14.20;;;7.20;;
41897;SDS011;27576;53.366;-1.498;2024-03-25T06:39:50;12.90;;;6.95;;
41897;SDS011;27576;53.366;-1.498;2024-03-25T06:42:15;11.55;;;7.07;;
41897;SDS011;27576;53.366;-1.498;2024-03-25T06:44:41;14.00;;;7.47;;
41897;SDS011;27576;53.366;-1.498;2024-03-25T06:47:08;13.75;;;7.10;;
41897;SDS011;27576;53.366;-1.498;2024-03-25T06:49:33;12.10;;;6.65;;
41897;SDS011;27576;53.366;-1.498;2024-03-25T06:51:59;15.05;;;7.55;;
41897;SDS011;27576;53.366;-1.498;2024-03-25T06:54:24;14.68;;;7.13;;
41897;SDS011;27576;53.366;-1.498;2024-03-25T06:56:49;11.90;;;6.75;;
41897;SDS011;27576;53.366;-1.498;2024-03-25T06:59:15;11.55;;;7.30;;
41897;SDS011;27576;53.366;-1.498;2024-03-25T07:01:40;11.40;;;7.10;;
41897;SDS011;27576;53.366;-1.498;2024-03-25T07:04:05;13.50;;;7.55;;
41897;SDS011;27576;53.366;-1.498;2024-03-25T07:06:31;13.65;;;6.50;;
41897;SDS011;27576;53.366;-1.498;2024-03-25T07:08:56;17.60;;;6.80;;
41897;SDS011;27576;53.366;-1.498;2024-03-25T07:11:21;13.45;;;6.15;;
41897;SDS011;27576;53.366;-1.498;2024-03-25T07:13:47;14.60;;;7.68;;
41897;SDS011;27576;53.366;-1.498;2024-03-25T07:16:13;16.38;;;6.13;;
41897;SDS011;27576;53.366;-1.498;2024-03-25T07:18:38;15.65;;;7.18;;
41897;SDS011;27576;53.366;-1.498;2024-03-25T07:21:03;9.70;;;6.18;;
41897;SDS011;27576;53.366;-1.498;2024-03-25T07:23:29;13.95;;;6.75;;
41897;SDS011;27576;53.366;-1.498;2024-03-25T07:25:54;17.95;;;7.50;;
41897;SDS011;27576;53.366;-1.498;2024-03-25T07:28:20;14.43;;;7.88;;
41897;SDS011;27576;53.366;-1.498;2024-03-25T07:30:45;19.88;;;8.10;;
41897;SDS011;27576;53.366;-1.498;2024-03-25T07:33:10;14.15;;;7.35;;
41897;SDS011;27576;53.366;-1.498;2024-03-25T07:35:36;16.63;;;7.78;;
41897;SDS011;27576;53.366;-1.498;2024-03-25T07:38:01;20.00;;;7.90;;
41897;SDS011;27576;53.366;-1.498;2024-03-25T07:40:28;15.10;;;7.13;;
41897;SDS011;27576;53.366;-1.498;2024-03-25T07:42:53;13.57;;;6.38;;
41897;SDS011;27576;53.366;-1.498;2024-03-25T07:45:19;16.38;;;7.38;;
41897;SDS011;27576;53.366;-1.498;2024-03-25T07:47:44;12.68;;;7.53;;
41897;SDS011;27576;53.366;-1.498;2024-03-25T07:50:09;16.55;;;7.78;;
41897;SDS011;27576;53.366;-1.498;2024-03-25T07:52:35;15.25;;;8.07;;
41897;SDS011;27576;53.366;-1.498;2024-03-25T07:55:05;12.23;;;6.55;;
41897;SDS011;27576;53.366;-1.498;2024-03-25T07:57:33;16.13;;;6.82;;
41897;SDS011;27576;53.366;-1.498;2024-03-25T07:59:58;15.77;;;7.30;;
41897;SDS011;27576;53.366;-1.498;2024-03-25T08:02:24;12.63;;;6.43;;
41897;SDS011;27576;53.366;-1.498;2024-03-25T08:04:49;13.88;;;6.78;;
41897;SDS011;27576;53.366;-1.498;2024-03-25T08:07:14;13.38;;;6.30;;
41897;SDS011;27576;53.366;-1.498;2024-03-25T08:09:40;13.68;;;7.20;;
41897;SDS011;27576;53.366;-1.498;2024-03-25T08:12:05;10.35;;;6.55;;
41897;SDS011;27576;53.366;-1.498;2024-03-25T08:14:31;14.93;;;7.05;;
41897;SDS011;27576;53.366;-1.498;2024-03-25T08:16:56;24.30;;;6.85;;
41897;SDS011;27576;53.366;-1.498;2024-03-25T08:19:21;11.45;;;6.25;;
41897;SDS011;27576;53.366;-1.498;2024-03-25T08:21:47;11.10;;;5.60;;
41897;SDS011;27576;53.366;-1.498;2024-03-25T08:24:13;13.23;;;6.68;;
41897;SDS011;27576;53.366;-1.498;2024-03-25T08:26:39;15.25;;;6.35;;
41897;SDS011;27576;53.366;-1.498;2024-03-25T08:29:04;13.20;;;5.85;;
41897;SDS011;27576;53.366;-1.498;2024-03-25T08:31:30;11.48;;;5.75;;
41897;SDS011;27576;53.366;-1.498;2024-03-25T08:33:56;14.23;;;5.97;;
41897;SDS011;27576;53.366;-1.498;2024-03-25T08:36:21;16.40;;;6.50;;
41897;SDS011;27576;53.366;-1.498;2024-03-25T08:38:47;10.80;;;5.55;;
41897;SDS011;27576;53.366;-1.498;2024-03-25T08:41:12;14.50;;;6.25;;
41897;SDS011;27576;53.366;-1.498;2024-03-25T08:43:38;14.25;;;6.75;;
41897;SDS011;27576;53.366;-1.498;2024-03-25T08:46:03;18.38;;;6.72;;
41897;SDS011;27576;53.366;-1.498;2024-03-25T08:48:28;16.60;;;6.72;;
41897;SDS011;27576;53.366;-1.498;2024-03-25T08:50:54;11.90;;;5.35;;
41897;SDS011;27576;53.366;-1.498;2024-03-25T08:53:19;11.70;;;6.72;;
41897;SDS011;27576;53.366;-1.498;2024-03-25T08:55:45;14.63;;;6.30;;
41897;SDS011;27576;53.366;-1.498;2024-03-25T08:58:11;14.80;;;5.68;;
41897;SDS011;27576;53.366;-1.498;2024-03-25T09:00:37;11.65;;;6.45;;
41897;SDS011;27576;53.366;-1.498;2024-03-25T09:03:03;15.20;;;6.60;;
41897;SDS011;27576;53.366;-1.498;2024-03-25T09:05:29;16.52;;;6.63;;
41897;SDS011;27576;53.366;-1.498;2024-03-25T09:07:55;16.63;;;7.82;;
41897;SDS011;27576;53.366;-1.498;2024-03-25T09:10:21;18.10;;;6.85;;
41897;SDS011;27576;53.366;-1.498;2024-03-25T09:13:05;19.65;;;6.65;;
41897;SDS011;27576;53.366;-1.498;2024-03-25T09:15:30;18.58;;;7.68;;
41897;SDS011;27576;53.366;-1.498;2024-03-25T09:17:56;18.05;;;7.97;;
41897;SDS011;27576;53.366;-1.498;2024-03-25T09:20:22;19.63;;;8.07;;
41897;SDS011;27576;53.366;-1.498;2024-03-25T09:22:48;19.35;;;8.57;;
41897;SDS011;27576;53.366;-1.498;2024-03-25T09:25:13;17.25;;;7.22;;
41897;SDS011;27576;53.366;-1.498;2024-03-25T09:27:39;22.65;;;9.43;;
41897;SDS011;27576;53.366;-1.498;2024-03-25T09:30:05;16.92;;;8.35;;
41897;SDS011;27576;53.366;-1.498;2024-03-25T09:32:31;16.33;;;9.13;;
41897;SDS011;27576;53.366;-1.498;2024-03-25T09:34:57;21.33;;;10.07;;
41897;SDS011;27576;53.366;-1.498;2024-03-25T09:37:22;20.23;;;9.88;;
41897;SDS011;27576;53.366;-1.498;2024-03-25T09:39:48;18.75;;;9.82;;
41897;SDS011;27576;53.366;-1.498;2024-03-25T09:42:19;24.38;;;11.73;;
41897;SDS011;27576;53.366;-1.498;2024-03-25T09:44:51;18.05;;;10.07;;
41897;SDS011;27576;53.366;-1.498;2024-03-25T09:47:17;20.35;;;10.70;;
41897;SDS011;27576;53.366;-1.498;2024-03-25T09:49:42;23.42;;;12.25;;
41897;SDS011;27576;53.366;-1.498;2024-03-25T09:52:10;16.92;;;10.82;;
41897;SDS011;27576;53.366;-1.498;2024-03-25T09:54:36;19.98;;;12.07;;
41897;SDS011;27576;53.366;-1.498;2024-03-25T09:57:01;19.80;;;12.80;;
41897;SDS011;27576;53.366;-1.498;2024-03-25T09:59:28;19.67;;;12.80;;
41897;SDS011;27576;53.366;-1.498;2024-03-25T10:01:54;18.50;;;12.40;;
41897;SDS011;27576;53.366;-1.498;2024-03-25T10:04:20;19.42;;;12.70;;
41897;SDS011;27576;53.366;-1.498;2024-03-25T10:06:45;17.38;;;12.15;;
41897;SDS011;27576;53.366;-1.498;2024-03-25T10:09:11;19.92;;;11.70;;
41897;SDS011;27576;53.366;-1.498;2024-03-25T10:11:36;24.17;;;11.60;;
41897;SDS011;27576;53.366;-1.498;2024-03-25T10:14:01;19.30;;;10.52;;
41897;SDS011;27576;53.366;-1.498;2024-03-25T10:16:27;19.23;;;10.05;;
41897;SDS011;27576;53.366;-1.498;2024-03-25T10:18:53;18.08;;;10.50;;
41897;SDS011;27576;53.366;-1.498;2024-03-25T10:21:19;19.77;;;11.00;;
41897;SDS011;27576;53.366;-1.498;2024-03-25T10:23:45;15.32;;;10.88;;
41897;SDS011;27576;53.366;-1.498;2024-03-25T10:26:24;20.50;;;10.82;;
41897;SDS011;27576;53.366;-1.498;2024-03-25T10:31:25;20.63;;;11.57;;
41897;SDS011;27576;53.366;-1.498;2024-03-25T10:33:51;14.20;;;10.75;;
41897;SDS011;27576;53.366;-1.498;2024-03-25T10:36:17;15.93;;;11.48;;
41897;SDS011;27576;53.366;-1.498;2024-03-25T10:38:44;18.00;;;10.77;;
41897;SDS011;27576;53.366;-1.498;2024-03-25T10:41:11;15.75;;;10.77;;
41897;SDS011;27576;53.366;-1.498;2024-03-25T10:43:42;18.25;;;10.65;;
41897;SDS011;27576;53.366;-1.498;2024-03-25T10:46:10;13.95;;;10.75;;
41897;SDS011;27576;53.366;-1.498;2024-03-25T10:48:39;13.95;;;9.70;;
41897;SDS011;27576;53.366;-1.498;2024-03-25T10:51:06;12.70;;;9.68;;
41897;SDS011;27576;53.366;-1.498;2024-03-25T10:53:34;14.80;;;9.98;;
41897;SDS011;27576;53.366;-1.498;2024-03-25T10:56:01;19.10;;;10.60;;
41897;SDS011;27576;53.366;-1.498;2024-03-25T10:58:29;13.48;;;11.05;;
41897;SDS011;27576;53.366;-1.498;2024-03-25T11:00:56;15.20;;;10.75;;
41897;SDS011;27576;53.366;-1.498;2024-03-25T11:03:22;14.18;;;10.50;;
41897;SDS011;27576;53.366;-1.498;2024-03-25T11:05:49;13.93;;;9.75;;
41897;SDS011;27576;53.366;-1.498;2024-03-25T11:08:15;17.17;;;10.02;;
41897;SDS011;27576;53.366;-1.498;2024-03-25T11:10:43;15.55;;;9.55;;
41897;SDS011;27576;53.366;-1.498;2024-03-25T11:13:10;15.13;;;9.63;;
41897;SDS011;27576;53.366;-1.498;2024-03-25T11:15:45;15.52;;;9.48;;
41897;SDS011;27576;53.366;-1.498;2024-03-25T11:18:12;11.88;;;10.18;;
41897;SDS011;27576;53.366;-1.498;2024-03-25T11:20:39;14.13;;;9.93;;
41897;SDS011;27576;53.366;-1.498;2024-03-25T11:23:08;18.52;;;10.73;;
41897;SDS011;27576;53.366;-1.498;2024-03-25T11:25:38;15.40;;;10.00;;
41897;SDS011;27576;53.366;-1.498;2024-03-25T11:28:04;14.88;;;11.02;;
41897;SDS011;27576;53.366;-1.498;2024-03-25T11:30:31;14.02;;;9.93;;
41897;SDS011;27576;53.366;-1.498;2024-03-25T11:32:57;16.05;;;8.75;;
41897;SDS011;27576;53.366;-1.498;2024-03-25T11:35:24;17.75;;;10.80;;
41897;SDS011;27576;53.366;-1.498;2024-03-25T11:37:49;17.83;;;11.13;;
41897;SDS011;27576;53.366;-1.498;2024-03-25T11:40:17;15.93;;;10.40;;
41897;SDS011;27576;53.366;-1.498;2024-03-25T11:42:42;15.98;;;11.32;;
41897;SDS011;27576;53.366;-1.498;2024-03-25T11:47:44;14.43;;;10.60;;
41897;SDS011;27576;53.366;-1.498;2024-03-25T11:50:14;17.20;;;10.27;;
41897;SDS011;27576;53.366;-1.498;2024-03-25T11:52:43;14.73;;;10.30;;
41897;SDS011;27576;53.366;-1.498;2024-03-25T11:55:08;15.90;;;10.45;;
41897;SDS011;27576;53.366;-1.498;2024-03-25T11:57:35;17.98;;;10.55;;
41897;SDS011;27576;53.366;-1.498;2024-03-25T12:00:01;17.27;;;11.48;;
41897;SDS011;27576;53.366;-1.498;2024-03-25T12:02:28;16.30;;;11.57;;
41897;SDS011;27576;53.366;-1.498;2024-03-25T12:04:53;16.67;;;11.55;;
41897;SDS011;27576;53.366;-1.498;2024-03-25T12:07:19;15.45;;;11.15;;
41897;SDS011;27576;53.366;-1.498;2024-03-25T12:09:44;13.73;;;10.95;;
41897;SDS011;27576;53.366;-1.498;2024-03-25T12:12:28;16.88;;;11.52;;
41897;SDS011;27576;53.366;-1.498;2024-03-25T12:14:53;16.92;;;11.40;;
41897;SDS011;27576;53.366;-1.498;2024-03-25T12:17:19;15.63;;;10.35;;
41897;SDS011;27576;53.366;-1.498;2024-03-25T12:20:06;16.98;;;11.38;;
41897;SDS011;27576;53.366;-1.498;2024-03-25T12:22:34;19.50;;;12.35;;
41897;SDS011;27576;53.366;-1.498;2024-03-25T12:25:01;13.65;;;10.15;;
41897;SDS011;27576;53.366;-1.498;2024-03-25T12:27:31;15.15;;;10.52;;
41897;SDS011;27576;53.366;-1.498;2024-03-25T12:30:00;13.23;;;9.90;;
41897;SDS011;27576;53.366;-1.498;2024-03-25T12:32:40;17.52;;;11.50;;
41897;SDS011;27576;53.366;-1.498;2024-03-25T12:35:07;14.38;;;10.70;;
41897;SDS011;27576;53.366;-1.498;2024-03-25T12:37:34;18.30;;;11.75;;
41897;SDS011;27576;53.366;-1.498;2024-03-25T12:40:02;20.65;;;12.63;;
41897;SDS011;27576;53.366;-1.498;2024-03-25T12:42:29;21.55;;;11.68;;
41897;SDS011;27576;53.366;-1.498;2024-03-25T12:44:55;18.33;;;10.85;;
41897;SDS011;27576;53.366;-1.498;2024-03-25T12:47:20;17.48;;;11.48;;
41897;SDS011;27576;53.366;-1.498;2024-03-25T12:49:46;23.48;;;13.02;;
41897;SDS011;27576;53.366;-1.498;2024-03-25T12:52:11;17.70;;;12.57;;
41897;SDS011;27576;53.366;-1.498;2024-03-25T12:54:37;18.33;;;11.13;;
41897;SDS011;27576;53.366;-1.498;2024-03-25T12:57:03;24.38;;;12.35;;
41897;SDS011;27576;53.366;-1.498;2024-03-25T12:59:28;15.43;;;11.57;;
41897;SDS011;27576;53.366;-1.498;2024-03-25T13:01:54;19.38;;;12.00;;
41897;SDS011;27576;53.366;-1.498;2024-03-25T13:04:19;18.45;;;10.90;;
41897;SDS011;27576;53.366;-1.498;2024-03-25T13:06:44;17.25;;;11.15;;
41897;SDS011;27576;53.366;-1.498;2024-03-25T13:09:10;16.02;;;10.77;;
41897;SDS011;27576;53.366;-1.498;2024-03-25T13:11:37;21.83;;;11.48;;
41897;SDS011;27576;53.366;-1.498;2024-03-25T13:14:03;15.35;;;10.23;;
41897;SDS011;27576;53.366;-1.498;2024-03-25T13:16:31;14.98;;;10.45;;
41897;SDS011;27576;53.366;-1.498;2024-03-25T13:18:56;16.55;;;11.30;;
41897;SDS011;27576;53.366;-1.498;2024-03-25T13:21:22;21.48;;;10.77;;
41897;SDS011;27576;53.366;-1.498;2024-03-25T13:23:47;14.68;;;10.90;;
41897;SDS011;27576;53.366;-1.498;2024-03-25T13:26:13;17.08;;;9.85;;
41897;SDS011;27576;53.366;-1.498;2024-03-25T13:28:38;13.48;;;9.50;;
41897;SDS011;27576;53.366;-1.498;2024-03-25T13:31:03;14.75;;;8.65;;
41897;SDS011;27576;53.366;-1.498;2024-03-25T13:33:29;12.50;;;8.50;;
41897;SDS011;27576;53.366;-1.498;2024-03-25T13:35:55;19.58;;;10.00;;
41897;SDS011;27576;53.366;-1.498;2024-03-25T13:38:21;14.73;;;9.27;;
41897;SDS011;27576;53.366;-1.498;2024-03-25T13:40:46;14.07;;;7.90;;
41897;SDS011;27576;53.366;-1.498;2024-03-25T13:43:11;12.70;;;8.32;;
41897;SDS011;27576;53.366;-1.498;2024-03-25T13:45:40;9.85;;;6.97;;
41897;SDS011;27576;53.366;-1.498;2024-03-25T13:48:12;14.02;;;7.95;;
41897;SDS011;27576;53.366;-1.498;2024-03-25T13:50:37;13.02;;;7.22;;
41897;SDS011;27576;53.366;-1.498;2024-03-25T13:53:02;9.32;;;5.65;;
41897;SDS011;27576;53.366;-1.498;2024-03-25T13:55:29;9.82;;;5.68;;
41897;SDS011;27576;53.366;-1.498;2024-03-25T13:57:54;5.97;;;4.38;;
41897;SDS011;27576;53.366;-1.498;2024-03-25T14:00:19;9.10;;;4.57;;
41897;SDS011;27576;53.366;-1.498;2024-03-25T14:02:47;7.18;;;4.65;;
41897;SDS011;27576;53.366;-1.498;2024-03-25T14:05:12;11.52;;;4.45;;
41897;SDS011;27576;53.366;-1.498;2024-03-25T14:07:38;7.75;;;4.20;;
41897;SDS011;27576;53.366;-1.498;2024-03-25T14:10:03;8.10;;;3.95;;
41897;SDS011;27576;53.366;-1.498;2024-03-25T14:12:29;7.22;;;3.95;;
41897;SDS011;27576;53.366;-1.498;2024-03-25T14:14:54;5.93;;;3.72;;
41897;SDS011;27576;53.366;-1.498;2024-03-25T14:17:20;5.35;;;4.00;;